sensor_id;sensor_type;location;lat;lon;timestamp;P1;durP1;ratioP1;P2;durP2;ratioP2
39846;SDS011;25517;52.422;10.782;2023-04-06T00:00:37;9.40;;;3.38;;
39846;SDS011;25517;52.422;10.782;2023-04-06T00:03:02;5.35;;;3.13;;
39846;SDS011;25517;52.422;10.782;2023-04-06T00:05:28;7.18;;;3.70;;
39846;SDS011;25517;52.422;10.782;2023-04-06T00:07:55;6.75;;;2.95;;
39846;SDS011;25517;52.422;10.782;2023-04-06T00:10:24;6.88;;;3.58;;
39846;SDS011;25517;52.422;10.782;2023-04-06T00:12:50;8.27;;;3.70;;
39846;SDS011;25517;52.422;10.782;2023-04-06T00:15:15;7.55;;;3.80;;
39846;SDS011;25517;52.422;10.782;2023-04-06T00:17:41;8.68;;;3.30;;
39846;SDS011;25517;52.422;10.782;2023-04-06T00:20:07;6.45;;;3.97;;
39846;SDS011;25517;52.422;10.782;2023-04-06T00:22:33;4.80;;;3.50;;
39846;SDS011;25517;52.422;10.782;2023-04-06T00:24:59;6.97;;;3.17;;
39846;SDS011;25517;52.422;10.782;2023-04-06T00:27:25;6.60;;;4.07;;
39846;SDS011;25517;52.422;10.782;2023-04-06T00:29:50;6.80;;;4.60;;
39846;SDS011;25517;52.422;10.782;2023-04-06T00:32:16;7.82;;;3.58;;
39846;SDS011;25517;52.422;10.782;2023-04-06T00:34:41;6.88;;;3.20;;
39846;SDS011;25517;52.422;10.782;2023-04-06T00:37:07;5.38;;;2.90;;
39846;SDS011;25517;52.422;10.782;2023-04-06T00:39:32;6.85;;;3.45;;
39846;SDS011;25517;52.422;10.782;2023-04-06T00:41:58;7.18;;;3.28;;
39846;SDS011;25517;52.422;10.782;2023-04-06T00:44:23;11.23;;;3.72;;
39846;SDS011;25517;52.422;10.782;2023-04-06T00:46:49;6.38;;;3.17;;
39846;SDS011;25517;52.422;10.782;2023-04-06T00:49:15;9.02;;;3.50;;
39846;SDS011;25517;52.422;10.782;2023-04-06T00:51:41;9.38;;;4.05;;
39846;SDS011;25517;52.422;10.782;2023-04-06T00:54:06;5.20;;;2.95;;
39846;SDS011;25517;52.422;10.782;2023-04-06T00:56:32;7.47;;;3.50;;
39846;SDS011;25517;52.422;10.782;2023-04-06T00:58:57;6.80;;;3.10;;
39846;SDS011;25517;52.422;10.782;2023-04-06T01:01:23;6.95;;;3.72;;
39846;SDS011;25517;52.422;10.782;2023-04-06T01:03:50;6.82;;;3.38;;
39846;SDS011;25517;52.422;10.782;2023-04-06T01:06:16;7.85;;;3.70;;
39846;SDS011;25517;52.422;10.782;2023-04-06T01:08:42;6.97;;;2.92;;
39846;SDS011;25517;52.422;10.782;2023-04-06T01:11:07;5.57;;;3.25;;
39846;SDS011;25517;52.422;10.782;2023-04-06T01:13:33;5.85;;;2.95;;
39846;SDS011;25517;52.422;10.782;2023-04-06T01:15:59;5.68;;;3.40;;
39846;SDS011;25517;52.422;10.782;2023-04-06T01:18:25;7.45;;;4.15;;
39846;SDS011;25517;52.422;10.782;2023-04-06T01:20:54;4.83;;;3.20;;
39846;SDS011;25517;52.422;10.782;2023-04-06T01:23:20;5.95;;;3.70;;
39846;SDS011;25517;52.422;10.782;2023-04-06T01:25:46;5.45;;;3.05;;
39846;SDS011;25517;52.422;10.782;2023-04-06T01:28:12;7.97;;;3.65;;
39846;SDS011;25517;52.422;10.782;2023-04-06T01:30:37;6.25;;;3.15;;
39846;SDS011;25517;52.422;10.782;2023-04-06T01:33:03;5.75;;;3.55;;
39846;SDS011;25517;52.422;10.782;2023-04-06T01:35:29;7.90;;;4.78;;
39846;SDS011;25517;52.422;10.782;2023-04-06T01:37:55;5.53;;;3.33;;
39846;SDS011;25517;52.422;10.782;2023-04-06T01:40:21;6.95;;;3.28;;
39846;SDS011;25517;52.422;10.782;2023-04-06T01:42:46;6.13;;;3.70;;
39846;SDS011;25517;52.422;10.782;2023-04-06T01:45:12;8.35;;;3.50;;
39846;SDS011;25517;52.422;10.782;2023-04-06T01:47:38;6.63;;;4.57;;
39846;SDS011;25517;52.422;10.782;2023-04-06T01:50:03;7.75;;;4.70;;
39846;SDS011;25517;52.422;10.782;2023-04-06T01:52:31;6.13;;;3.92;;
39846;SDS011;25517;52.422;10.782;2023-04-06T01:54:57;8.10;;;4.80;;
39846;SDS011;25517;52.422;10.782;2023-04-06T01:57:23;8.32;;;4.75;;
39846;SDS011;25517;52.422;10.782;2023-04-06T01:59:50;8.77;;;4.60;;
39846;SDS011;25517;52.422;10.782;2023-04-06T02:02:16;6.32;;;3.90;;
39846;SDS011;25517;52.422;10.782;2023-04-06T02:04:41;10.95;;;4.70;;
39846;SDS011;25517;52.422;10.782;2023-04-06T02:07:07;6.95;;;4.60;;
39846;SDS011;25517;52.422;10.782;2023-04-06T02:09:32;6.88;;;4.15;;
39846;SDS011;25517;52.422;10.782;2023-04-06T02:11:58;7.05;;;4.45;;
39846;SDS011;25517;52.422;10.782;2023-04-06T02:14:24;6.47;;;4.40;;
39846;SDS011;25517;52.422;10.782;2023-04-06T02:16:50;6.53;;;4.15;;
39846;SDS011;25517;52.422;10.782;2023-04-06T02:19:16;9.95;;;4.55;;
39846;SDS011;25517;52.422;10.782;2023-04-06T02:21:42;9.27;;;5.25;;
39846;SDS011;25517;52.422;10.782;2023-04-06T02:24:07;9.52;;;4.85;;
39846;SDS011;25517;52.422;10.782;2023-04-06T02:26:33;11.55;;;5.25;;
39846;SDS011;25517;52.422;10.782;2023-04-06T02:28:59;10.30;;;4.82;;
39846;SDS011;25517;52.422;10.782;2023-04-06T02:31:24;8.45;;;5.25;;
39846;SDS011;25517;52.422;10.782;2023-04-06T02:33:51;11.20;;;5.72;;
39846;SDS011;25517;52.422;10.782;2023-04-06T02:36:16;9.57;;;5.47;;
39846;SDS011;25517;52.422;10.782;2023-04-06T02:38:42;8.95;;;5.28;;
39846;SDS011;25517;52.422;10.782;2023-04-06T02:41:08;8.18;;;5.22;;
39846;SDS011;25517;52.422;10.782;2023-04-06T02:43:34;7.40;;;5.40;;
39846;SDS011;25517;52.422;10.782;2023-04-06T02:46:00;9.32;;;5.10;;
39846;SDS011;25517;52.422;10.782;2023-04-06T02:48:25;7.35;;;4.85;;
39846;SDS011;25517;52.422;10.782;2023-04-06T02:50:51;7.43;;;4.68;;
39846;SDS011;25517;52.422;10.782;2023-04-06T02:53:16;11.82;;;5.15;;
39846;SDS011;25517;52.422;10.782;2023-04-06T02:55:42;8.52;;;5.78;;
39846;SDS011;25517;52.422;10.782;2023-04-06T02:58:07;8.55;;;5.05;;
39846;SDS011;25517;52.422;10.782;2023-04-06T03:00:33;8.35;;;5.57;;
39846;SDS011;25517;52.422;10.782;2023-04-06T03:02:58;11.70;;;5.43;;
39846;SDS011;25517;52.422;10.782;2023-04-06T03:05:24;11.32;;;5.70;;
39846;SDS011;25517;52.422;10.782;2023-04-06T03:07:49;8.68;;;5.05;;
39846;SDS011;25517;52.422;10.782;2023-04-06T03:10:15;9.68;;;6.57;;
39846;SDS011;25517;52.422;10.782;2023-04-06T03:12:40;7.88;;;5.57;;
39846;SDS011;25517;52.422;10.782;2023-04-06T03:15:06;8.55;;;5.63;;
39846;SDS011;25517;52.422;10.782;2023-04-06T03:17:33;16.63;;;5.72;;
39846;SDS011;25517;52.422;10.782;2023-04-06T03:19:58;8.82;;;5.57;;
39846;SDS011;25517;52.422;10.782;2023-04-06T03:22:24;10.05;;;5.68;;
39846;SDS011;25517;52.422;10.782;2023-04-06T03:24:49;12.20;;;5.78;;
39846;SDS011;25517;52.422;10.782;2023-04-06T03:27:15;8.13;;;5.57;;
39846;SDS011;25517;52.422;10.782;2023-04-06T03:29:40;8.43;;;5.38;;
39846;SDS011;25517;52.422;10.782;2023-04-06T03:32:06;9.85;;;6.25;;
39846;SDS011;25517;52.422;10.782;2023-04-06T03:34:32;10.52;;;6.22;;
39846;SDS011;25517;52.422;10.782;2023-04-06T03:36:57;11.05;;;5.85;;
39846;SDS011;25517;52.422;10.782;2023-04-06T03:39:23;7.60;;;5.35;;
39846;SDS011;25517;52.422;10.782;2023-04-06T03:41:48;8.73;;;5.35;;
39846;SDS011;25517;52.422;10.782;2023-04-06T03:44:14;12.63;;;5.95;;
39846;SDS011;25517;52.422;10.782;2023-04-06T03:46:39;12.25;;;6.10;;
39846;SDS011;25517;52.422;10.782;2023-04-06T03:49:05;11.00;;;6.43;;
39846;SDS011;25517;52.422;10.782;2023-04-06T03:51:31;10.45;;;6.22;;
39846;SDS011;25517;52.422;10.782;2023-04-06T03:53:56;11.68;;;6.40;;
39846;SDS011;25517;52.422;10.782;2023-04-06T03:56:22;16.58;;;6.30;;
39846;SDS011;25517;52.422;10.782;2023-04-06T03:58:47;9.70;;;6.03;;
39846;SDS011;25517;52.422;10.782;2023-04-06T04:01:19;13.02;;;7.38;;
39846;SDS011;25517;52.422;10.782;2023-04-06T04:03:44;13.55;;;6.60;;
39846;SDS011;25517;52.422;10.782;2023-04-06T04:06:10;13.98;;;7.05;;
39846;SDS011;25517;52.422;10.782;2023-04-06T04:08:35;12.65;;;6.95;;
39846;SDS011;25517;52.422;10.782;2023-04-06T04:11:01;11.98;;;7.03;;
39846;SDS011;25517;52.422;10.782;2023-04-06T04:13:26;9.52;;;5.78;;
39846;SDS011;25517;52.422;10.782;2023-04-06T04:15:52;12.20;;;6.65;;
39846;SDS011;25517;52.422;10.782;2023-04-06T04:18:18;17.88;;;7.72;;
39846;SDS011;25517;52.422;10.782;2023-04-06T04:20:43;12.30;;;6.82;;
39846;SDS011;25517;52.422;10.782;2023-04-06T04:23:09;11.82;;;7.00;;
39846;SDS011;25517;52.422;10.782;2023-04-06T04:25:35;11.40;;;6.65;;
39846;SDS011;25517;52.422;10.782;2023-04-06T04:28:01;11.35;;;7.30;;
39846;SDS011;25517;52.422;10.782;2023-04-06T04:30:26;9.95;;;6.50;;
39846;SDS011;25517;52.422;10.782;2023-04-06T04:32:52;10.63;;;7.13;;
39846;SDS011;25517;52.422;10.782;2023-04-06T04:35:18;14.18;;;7.68;;
39846;SDS011;25517;52.422;10.782;2023-04-06T04:37:43;12.02;;;6.97;;
39846;SDS011;25517;52.422;10.782;2023-04-06T04:40:09;16.13;;;7.63;;
39846;SDS011;25517;52.422;10.782;2023-04-06T04:42:35;14.10;;;8.05;;
39846;SDS011;25517;52.422;10.782;2023-04-06T04:45:01;16.23;;;7.05;;
39846;SDS011;25517;52.422;10.782;2023-04-06T04:47:26;10.45;;;6.63;;
39846;SDS011;25517;52.422;10.782;2023-04-06T04:49:52;14.70;;;8.25;;
39846;SDS011;25517;52.422;10.782;2023-04-06T04:52:17;11.85;;;7.60;;
39846;SDS011;25517;52.422;10.782;2023-04-06T04:54:43;15.85;;;7.80;;
39846;SDS011;25517;52.422;10.782;2023-04-06T04:57:09;15.98;;;7.93;;
39846;SDS011;25517;52.422;10.782;2023-04-06T04:59:34;11.98;;;7.15;;
39846;SDS011;25517;52.422;10.782;2023-04-06T05:02:00;12.85;;;6.90;;
39846;SDS011;25517;52.422;10.782;2023-04-06T05:04:26;12.10;;;7.85;;
39846;SDS011;25517;52.422;10.782;2023-04-06T05:07:01;10.57;;;6.65;;
39846;SDS011;25517;52.422;10.782;2023-04-06T05:09:31;13.00;;;8.00;;
39846;SDS011;25517;52.422;10.782;2023-04-06T05:11:57;16.30;;;7.85;;
39846;SDS011;25517;52.422;10.782;2023-04-06T05:14:24;12.68;;;7.57;;
39846;SDS011;25517;52.422;10.782;2023-04-06T05:16:50;15.73;;;8.05;;
39846;SDS011;25517;52.422;10.782;2023-04-06T05:19:17;13.80;;;7.72;;
39846;SDS011;25517;52.422;10.782;2023-04-06T05:21:42;17.58;;;8.35;;
39846;SDS011;25517;52.422;10.782;2023-04-06T05:24:08;15.13;;;7.80;;
39846;SDS011;25517;52.422;10.782;2023-04-06T05:26:34;14.65;;;7.72;;
39846;SDS011;25517;52.422;10.782;2023-04-06T05:28:59;16.30;;;9.05;;
39846;SDS011;25517;52.422;10.782;2023-04-06T05:31:25;13.98;;;8.18;;
39846;SDS011;25517;52.422;10.782;2023-04-06T05:33:51;15.02;;;8.43;;
39846;SDS011;25517;52.422;10.782;2023-04-06T05:36:17;14.25;;;8.35;;
39846;SDS011;25517;52.422;10.782;2023-04-06T05:38:42;13.70;;;7.85;;
39846;SDS011;25517;52.422;10.782;2023-04-06T05:41:08;14.88;;;8.77;;
39846;SDS011;25517;52.422;10.782;2023-04-06T05:43:33;14.75;;;8.20;;
39846;SDS011;25517;52.422;10.782;2023-04-06T05:45:59;12.75;;;7.68;;
39846;SDS011;25517;52.422;10.782;2023-04-06T05:48:24;13.30;;;8.10;;
39846;SDS011;25517;52.422;10.782;2023-04-06T05:50:51;15.40;;;8.80;;
39846;SDS011;25517;52.422;10.782;2023-04-06T05:53:16;18.67;;;8.93;;
39846;SDS011;25517;52.422;10.782;2023-04-06T05:55:42;17.73;;;10.00;;
39846;SDS011;25517;52.422;10.782;2023-04-06T05:58:07;21.90;;;10.98;;
39846;SDS011;25517;52.422;10.782;2023-04-06T06:00:34;17.52;;;8.23;;
39846;SDS011;25517;52.422;10.782;2023-04-06T06:02:59;26.27;;;10.25;;
39846;SDS011;25517;52.422;10.782;2023-04-06T06:05:25;20.73;;;10.02;;
39846;SDS011;25517;52.422;10.782;2023-04-06T06:07:51;18.67;;;9.18;;
39846;SDS011;25517;52.422;10.782;2023-04-06T06:10:17;18.05;;;8.95;;
39846;SDS011;25517;52.422;10.782;2023-04-06T06:12:42;17.85;;;8.95;;
39846;SDS011;25517;52.422;10.782;2023-04-06T06:15:08;17.08;;;9.80;;
39846;SDS011;25517;52.422;10.782;2023-04-06T06:17:34;14.52;;;9.05;;
39846;SDS011;25517;52.422;10.782;2023-04-06T06:19:59;15.02;;;9.07;;
39846;SDS011;25517;52.422;10.782;2023-04-06T06:22:25;18.50;;;9.40;;
39846;SDS011;25517;52.422;10.782;2023-04-06T06:24:50;18.50;;;9.88;;
39846;SDS011;25517;52.422;10.782;2023-04-06T06:27:16;18.83;;;9.50;;
39846;SDS011;25517;52.422;10.782;2023-04-06T06:29:41;15.25;;;9.90;;
39846;SDS011;25517;52.422;10.782;2023-04-06T06:32:07;12.93;;;8.93;;
39846;SDS011;25517;52.422;10.782;2023-04-06T06:34:34;16.85;;;9.98;;
39846;SDS011;25517;52.422;10.782;2023-04-06T06:37:00;15.68;;;9.27;;
39846;SDS011;25517;52.422;10.782;2023-04-06T06:39:27;16.20;;;9.90;;
39846;SDS011;25517;52.422;10.782;2023-04-06T06:41:52;13.77;;;9.02;;
39846;SDS011;25517;52.422;10.782;2023-04-06T06:44:19;18.63;;;10.73;;
39846;SDS011;25517;52.422;10.782;2023-04-06T06:46:46;18.75;;;9.45;;
39846;SDS011;25517;52.422;10.782;2023-04-06T06:49:12;13.15;;;9.23;;
39846;SDS011;25517;52.422;10.782;2023-04-06T06:51:39;14.07;;;9.07;;
39846;SDS011;25517;52.422;10.782;2023-04-06T06:54:05;20.02;;;11.20;;
39846;SDS011;25517;52.422;10.782;2023-04-06T06:56:30;17.27;;;9.40;;
39846;SDS011;25517;52.422;10.782;2023-04-06T06:58:56;17.85;;;9.90;;
39846;SDS011;25517;52.422;10.782;2023-04-06T07:01:21;18.33;;;11.02;;
39846;SDS011;25517;52.422;10.782;2023-04-06T07:03:47;16.08;;;10.18;;
39846;SDS011;25517;52.422;10.782;2023-04-06T07:06:13;15.27;;;10.30;;
39846;SDS011;25517;52.422;10.782;2023-04-06T07:08:38;15.65;;;10.38;;
39846;SDS011;25517;52.422;10.782;2023-04-06T07:11:04;15.23;;;9.63;;
39846;SDS011;25517;52.422;10.782;2023-04-06T07:13:29;18.58;;;9.95;;
39846;SDS011;25517;52.422;10.782;2023-04-06T07:15:55;19.30;;;10.02;;
39846;SDS011;25517;52.422;10.782;2023-04-06T07:18:21;14.85;;;9.65;;
39846;SDS011;25517;52.422;10.782;2023-04-06T07:20:47;17.77;;;9.85;;
39846;SDS011;25517;52.422;10.782;2023-04-06T07:23:12;15.68;;;9.27;;
39846;SDS011;25517;52.422;10.782;2023-04-06T07:25:38;15.52;;;9.07;;
39846;SDS011;25517;52.422;10.782;2023-04-06T07:28:03;13.60;;;8.98;;
39846;SDS011;25517;52.422;10.782;2023-04-06T07:30:29;12.52;;;8.07;;
39846;SDS011;25517;52.422;10.782;2023-04-06T07:32:55;13.63;;;8.00;;
39846;SDS011;25517;52.422;10.782;2023-04-06T07:35:21;13.32;;;7.78;;
39846;SDS011;25517;52.422;10.782;2023-04-06T07:37:51;12.20;;;7.55;;
39846;SDS011;25517;52.422;10.782;2023-04-06T07:40:17;14.50;;;8.15;;
39846;SDS011;25517;52.422;10.782;2023-04-06T07:42:44;11.73;;;7.75;;
39846;SDS011;25517;52.422;10.782;2023-04-06T07:45:10;15.35;;;8.25;;
39846;SDS011;25517;52.422;10.782;2023-04-06T07:47:36;12.60;;;7.03;;
39846;SDS011;25517;52.422;10.782;2023-04-06T07:50:02;14.95;;;7.80;;
39846;SDS011;25517;52.422;10.782;2023-04-06T07:52:27;11.88;;;7.85;;
39846;SDS011;25517;52.422;10.782;2023-04-06T07:54:53;11.60;;;7.28;;
39846;SDS011;25517;52.422;10.782;2023-04-06T07:57:18;10.88;;;7.55;;
39846;SDS011;25517;52.422;10.782;2023-04-06T07:59:44;11.73;;;7.43;;
39846;SDS011;25517;52.422;10.782;2023-04-06T08:02:10;10.30;;;7.57;;
39846;SDS011;25517;52.422;10.782;2023-04-06T08:04:35;11.88;;;8.02;;
39846;SDS011;25517;52.422;10.782;2023-04-06T08:07:01;9.75;;;6.70;;
39846;SDS011;25517;52.422;10.782;2023-04-06T08:09:27;12.05;;;8.68;;
39846;SDS011;25517;52.422;10.782;2023-04-06T08:11:52;11.90;;;7.78;;
39846;SDS011;25517;52.422;10.782;2023-04-06T08:14:18;14.35;;;7.30;;
39846;SDS011;25517;52.422;10.782;2023-04-06T08:16:43;10.07;;;7.53;;
39846;SDS011;25517;52.422;10.782;2023-04-06T08:19:09;15.20;;;7.15;;
39846;SDS011;25517;52.422;10.782;2023-04-06T08:21:35;9.95;;;7.30;;
39846;SDS011;25517;52.422;10.782;2023-04-06T08:24:01;9.18;;;6.95;;
39846;SDS011;25517;52.422;10.782;2023-04-06T08:26:27;8.50;;;6.80;;
39846;SDS011;25517;52.422;10.782;2023-04-06T08:28:53;11.07;;;7.10;;
39846;SDS011;25517;52.422;10.782;2023-04-06T08:31:18;10.38;;;6.82;;
39846;SDS011;25517;52.422;10.782;2023-04-06T08:33:44;10.63;;;7.25;;
39846;SDS011;25517;52.422;10.782;2023-04-06T08:36:11;6.72;;;6.03;;
39846;SDS011;25517;52.422;10.782;2023-04-06T08:38:38;10.25;;;5.63;;
39846;SDS011;25517;52.422;10.782;2023-04-06T08:41:08;7.32;;;5.82;;
39846;SDS011;25517;52.422;10.782;2023-04-06T08:43:56;7.40;;;5.75;;
39846;SDS011;25517;52.422;10.782;2023-04-06T08:46:28;10.35;;;6.57;;
39846;SDS011;25517;52.422;10.782;2023-04-06T08:49:02;9.35;;;6.45;;
39846;SDS011;25517;52.422;10.782;2023-04-06T08:51:31;8.25;;;5.60;;
39846;SDS011;25517;52.422;10.782;2023-04-06T08:53:57;14.57;;;7.22;;
39846;SDS011;25517;52.422;10.782;2023-04-06T08:56:25;6.45;;;5.57;;
39846;SDS011;25517;52.422;10.782;2023-04-06T08:58:52;10.80;;;6.10;;
39846;SDS011;25517;52.422;10.782;2023-04-06T09:01:25;6.55;;;5.40;;
39846;SDS011;25517;52.422;10.782;2023-04-06T09:03:55;7.57;;;5.70;;
39846;SDS011;25517;52.422;10.782;2023-04-06T09:06:22;8.98;;;6.25;;
39846;SDS011;25517;52.422;10.782;2023-04-06T09:08:49;8.30;;;6.20;;
39846;SDS011;25517;52.422;10.782;2023-04-06T09:11:14;9.98;;;5.97;;
39846;SDS011;25517;52.422;10.782;2023-04-06T09:16:19;7.15;;;5.50;;
39846;SDS011;25517;52.422;10.782;2023-04-06T09:18:46;9.25;;;6.95;;
39846;SDS011;25517;52.422;10.782;2023-04-06T09:21:12;8.18;;;6.10;;
39846;SDS011;25517;52.422;10.782;2023-04-06T09:23:41;15.75;;;7.78;;
39846;SDS011;25517;52.422;10.782;2023-04-06T09:26:08;14.02;;;7.60;;
39846;SDS011;25517;52.422;10.782;2023-04-06T09:28:45;7.68;;;6.60;;
39846;SDS011;25517;52.422;10.782;2023-04-06T09:31:16;8.00;;;6.57;;
39846;SDS011;25517;52.422;10.782;2023-04-06T09:33:49;15.23;;;7.70;;
39846;SDS011;25517;52.422;10.782;2023-04-06T09:36:15;9.63;;;6.85;;
39846;SDS011;25517;52.422;10.782;2023-04-06T09:38:54;7.72;;;6.38;;
39846;SDS011;25517;52.422;10.782;2023-04-06T09:41:22;14.43;;;6.95;;
39846;SDS011;25517;52.422;10.782;2023-04-06T09:43:49;14.20;;;6.80;;
39846;SDS011;25517;52.422;10.782;2023-04-06T09:46:15;11.15;;;6.43;;
39846;SDS011;25517;52.422;10.782;2023-04-06T09:48:43;10.00;;;6.00;;
39846;SDS011;25517;52.422;10.782;2023-04-06T09:51:08;9.27;;;5.90;;
39846;SDS011;25517;52.422;10.782;2023-04-06T09:53:38;6.32;;;5.30;;
39846;SDS011;25517;52.422;10.782;2023-04-06T09:56:07;9.57;;;5.43;;
39846;SDS011;25517;52.422;10.782;2023-04-06T10:01:07;7.32;;;6.35;;
39846;SDS011;25517;52.422;10.782;2023-04-06T10:03:58;8.40;;;6.15;;
39846;SDS011;25517;52.422;10.782;2023-04-06T10:06:38;11.10;;;6.57;;
39846;SDS011;25517;52.422;10.782;2023-04-06T10:09:04;6.88;;;5.72;;
39846;SDS011;25517;52.422;10.782;2023-04-06T10:11:33;7.30;;;6.47;;
39846;SDS011;25517;52.422;10.782;2023-04-06T10:13:59;6.55;;;5.72;;
39846;SDS011;25517;52.422;10.782;2023-04-06T10:16:25;8.50;;;5.75;;
39846;SDS011;25517;52.422;10.782;2023-04-06T10:18:54;12.63;;;5.28;;
39846;SDS011;25517;52.422;10.782;2023-04-06T10:21:25;7.72;;;5.60;;
39846;SDS011;25517;52.422;10.782;2023-04-06T10:23:54;11.05;;;6.30;;
39846;SDS011;25517;52.422;10.782;2023-04-06T10:28:50;9.15;;;6.25;;
39846;SDS011;25517;52.422;10.782;2023-04-06T10:31:23;10.60;;;5.80;;
39846;SDS011;25517;52.422;10.782;2023-04-06T10:33:55;7.47;;;5.78;;
39846;SDS011;25517;52.422;10.782;2023-04-06T10:36:32;6.75;;;6.05;;
39846;SDS011;25517;52.422;10.782;2023-04-06T10:38:59;7.90;;;5.55;;
39846;SDS011;25517;52.422;10.782;2023-04-06T10:41:35;8.73;;;6.10;;
39846;SDS011;25517;52.422;10.782;2023-04-06T10:44:05;6.55;;;5.78;;
39846;SDS011;25517;52.422;10.782;2023-04-06T10:46:32;8.75;;;7.20;;
39846;SDS011;25517;52.422;10.782;2023-04-06T10:48:58;7.00;;;5.68;;
39846;SDS011;25517;52.422;10.782;2023-04-06T10:51:37;10.75;;;5.78;;
39846;SDS011;25517;52.422;10.782;2023-04-06T10:54:03;8.18;;;5.53;;
39846;SDS011;25517;52.422;10.782;2023-04-06T10:56:30;8.45;;;5.97;;
39846;SDS011;25517;52.422;10.782;2023-04-06T10:58:59;14.20;;;6.75;;
39846;SDS011;25517;52.422;10.782;2023-04-06T11:01:25;7.50;;;6.20;;
39846;SDS011;25517;52.422;10.782;2023-04-06T11:03:53;8.18;;;6.15;;
39846;SDS011;25517;52.422;10.782;2023-04-06T11:06:24;9.93;;;6.30;;
39846;SDS011;25517;52.422;10.782;2023-04-06T11:08:51;8.35;;;6.55;;
39846;SDS011;25517;52.422;10.782;2023-04-06T11:11:19;8.35;;;6.30;;
39846;SDS011;25517;52.422;10.782;2023-04-06T11:13:51;7.43;;;5.68;;
39846;SDS011;25517;52.422;10.782;2023-04-06T11:16:23;8.40;;;5.90;;
39846;SDS011;25517;52.422;10.782;2023-04-06T11:18:55;10.32;;;7.22;;
39846;SDS011;25517;52.422;10.782;2023-04-06T11:26:44;9.73;;;6.38;;
39846;SDS011;25517;52.422;10.782;2023-04-06T11:29:16;6.97;;;6.28;;
39846;SDS011;25517;52.422;10.782;2023-04-06T11:31:45;9.63;;;6.97;;
39846;SDS011;25517;52.422;10.782;2023-04-06T11:34:12;9.85;;;6.90;;
39846;SDS011;25517;52.422;10.782;2023-04-06T11:36:42;10.57;;;6.88;;
39846;SDS011;25517;52.422;10.782;2023-04-06T11:39:08;8.48;;;6.20;;
39846;SDS011;25517;52.422;10.782;2023-04-06T11:41:35;12.15;;;6.18;;
39846;SDS011;25517;52.422;10.782;2023-04-06T11:44:01;8.73;;;7.28;;
39846;SDS011;25517;52.422;10.782;2023-04-06T11:46:27;9.30;;;7.25;;
39846;SDS011;25517;52.422;10.782;2023-04-06T11:48:53;7.57;;;6.80;;
39846;SDS011;25517;52.422;10.782;2023-04-06T11:51:27;10.38;;;6.65;;
39846;SDS011;25517;52.422;10.782;2023-04-06T11:53:53;10.48;;;6.45;;
39846;SDS011;25517;52.422;10.782;2023-04-06T11:56:29;8.18;;;6.60;;
39846;SDS011;25517;52.422;10.782;2023-04-06T11:58:55;10.30;;;6.45;;
39846;SDS011;25517;52.422;10.782;2023-04-06T12:01:24;9.85;;;7.35;;
39846;SDS011;25517;52.422;10.782;2023-04-06T12:03:50;15.93;;;7.40;;
39846;SDS011;25517;52.422;10.782;2023-04-06T12:06:16;10.23;;;8.00;;
39846;SDS011;25517;52.422;10.782;2023-04-06T12:08:42;9.50;;;6.65;;
39846;SDS011;25517;52.422;10.782;2023-04-06T12:11:08;9.30;;;6.40;;
39846;SDS011;25517;52.422;10.782;2023-04-06T12:13:33;8.77;;;7.70;;
39846;SDS011;25517;52.422;10.782;2023-04-06T12:15:59;9.02;;;7.72;;
39846;SDS011;25517;52.422;10.782;2023-04-06T12:18:24;10.45;;;7.65;;
39846;SDS011;25517;52.422;10.782;2023-04-06T12:20:50;8.77;;;7.47;;
39846;SDS011;25517;52.422;10.782;2023-04-06T12:23:16;13.15;;;8.43;;
39846;SDS011;25517;52.422;10.782;2023-04-06T12:25:42;10.13;;;8.65;;
39846;SDS011;25517;52.422;10.782;2023-04-06T12:28:07;12.82;;;8.27;;
39846;SDS011;25517;52.422;10.782;2023-04-06T12:30:34;12.95;;;8.80;;
39846;SDS011;25517;52.422;10.782;2023-04-06T12:33:00;13.27;;;9.00;;
39846;SDS011;25517;52.422;10.782;2023-04-06T12:35:26;13.45;;;8.82;;
39846;SDS011;25517;52.422;10.782;2023-04-06T12:37:52;12.05;;;8.23;;
39846;SDS011;25517;52.422;10.782;2023-04-06T12:40:18;14.45;;;9.18;;
39846;SDS011;25517;52.422;10.782;2023-04-06T12:42:43;12.82;;;8.43;;
39846;SDS011;25517;52.422;10.782;2023-04-06T12:45:10;14.23;;;9.20;;
39846;SDS011;25517;52.422;10.782;2023-04-06T12:47:36;13.25;;;8.55;;
39846;SDS011;25517;52.422;10.782;2023-04-06T12:50:02;11.88;;;9.52;;
39846;SDS011;25517;52.422;10.782;2023-04-06T12:52:29;10.68;;;8.73;;
39846;SDS011;25517;52.422;10.782;2023-04-06T12:54:56;11.70;;;8.63;;
39846;SDS011;25517;52.422;10.782;2023-04-06T12:57:22;11.93;;;8.07;;
39846;SDS011;25517;52.422;10.782;2023-04-06T12:59:48;11.70;;;8.18;;
39846;SDS011;25517;52.422;10.782;2023-04-06T13:02:13;30.65;;;23.05;;
39846;SDS011;25517;52.422;10.782;2023-04-06T13:04:39;20.15;;;12.35;;
39846;SDS011;25517;52.422;10.782;2023-04-06T13:07:05;13.10;;;9.57;;
39846;SDS011;25517;52.422;10.782;2023-04-06T13:09:31;13.73;;;9.38;;
39846;SDS011;25517;52.422;10.782;2023-04-06T13:11:56;14.38;;;10.75;;
39846;SDS011;25517;52.422;10.782;2023-04-06T13:14:22;11.10;;;9.35;;
39846;SDS011;25517;52.422;10.782;2023-04-06T13:16:47;12.32;;;9.32;;
39846;SDS011;25517;52.422;10.782;2023-04-06T13:19:13;14.55;;;9.85;;
39846;SDS011;25517;52.422;10.782;2023-04-06T13:21:38;17.75;;;9.90;;
39846;SDS011;25517;52.422;10.782;2023-04-06T13:24:04;13.13;;;9.68;;
39846;SDS011;25517;52.422;10.782;2023-04-06T13:26:30;14.05;;;10.43;;
39846;SDS011;25517;52.422;10.782;2023-04-06T13:28:56;14.35;;;9.65;;
39846;SDS011;25517;52.422;10.782;2023-04-06T13:31:22;16.00;;;10.40;;
39846;SDS011;25517;52.422;10.782;2023-04-06T13:33:47;14.88;;;10.10;;
39846;SDS011;25517;52.422;10.782;2023-04-06T13:36:13;16.02;;;10.27;;
39846;SDS011;25517;52.422;10.782;2023-04-06T13:38:38;13.27;;;8.80;;
39846;SDS011;25517;52.422;10.782;2023-04-06T13:41:04;14.98;;;9.93;;
39846;SDS011;25517;52.422;10.782;2023-04-06T13:43:30;14.65;;;9.63;;
39846;SDS011;25517;52.422;10.782;2023-04-06T13:45:56;13.40;;;9.38;;
39846;SDS011;25517;52.422;10.782;2023-04-06T13:48:24;19.23;;;10.30;;
39846;SDS011;25517;52.422;10.782;2023-04-06T13:50:50;13.77;;;9.85;;
39846;SDS011;25517;52.422;10.782;2023-04-06T13:53:16;13.55;;;8.57;;
39846;SDS011;25517;52.422;10.782;2023-04-06T13:55:42;15.50;;;9.73;;
39846;SDS011;25517;52.422;10.782;2023-04-06T13:58:08;18.17;;;14.02;;
39846;SDS011;25517;52.422;10.782;2023-04-06T14:00:33;15.25;;;11.25;;
39846;SDS011;25517;52.422;10.782;2023-04-06T14:03:00;14.60;;;8.82;;
39846;SDS011;25517;52.422;10.782;2023-04-06T14:05:25;15.68;;;9.07;;
39846;SDS011;25517;52.422;10.782;2023-04-06T14:07:52;13.77;;;8.43;;
39846;SDS011;25517;52.422;10.782;2023-04-06T14:10:19;12.50;;;8.43;;
39846;SDS011;25517;52.422;10.782;2023-04-06T14:12:47;12.13;;;7.65;;
39846;SDS011;25517;52.422;10.782;2023-04-06T14:15:13;12.15;;;7.97;;
39846;SDS011;25517;52.422;10.782;2023-04-06T14:17:38;11.52;;;8.88;;
39846;SDS011;25517;52.422;10.782;2023-04-06T14:20:07;11.15;;;8.48;;
39846;SDS011;25517;52.422;10.782;2023-04-06T14:22:38;13.70;;;9.40;;
39846;SDS011;25517;52.422;10.782;2023-04-06T14:25:06;14.82;;;8.02;;
39846;SDS011;25517;52.422;10.782;2023-04-06T14:27:31;11.82;;;8.73;;
39846;SDS011;25517;52.422;10.782;2023-04-06T14:29:57;10.30;;;8.02;;
39846;SDS011;25517;52.422;10.782;2023-04-06T14:32:22;12.23;;;7.82;;
39846;SDS011;25517;52.422;10.782;2023-04-06T14:34:49;13.35;;;8.05;;